Time;durP1;ratioP1;P1;durP2;ratioP2;P2;SDS_P1;SDS_P2;PMS_P1;PMS_P2;Temp;Humidity;BMP_temperature;BMP_pressure;BME280_temperature;BME280_humidity;BME280_pressure;Samples;Min_cycle;Max_cycle;Signal;HPM_P1;HPM_P2
2021/09/10 00:00:51;;;;;;;8.6;5.3;;;;;;;17.12;80.97754;938.633;;;;
2021/09/10 00:03:29;;;;;;;6.7;5;;;;;;;17.19;81.06055;938.652;;;;
2021/09/10 00:05:55;;;;;;;5.5;4.9;;;;;;;17.32;80.25;938.6228;;;;
2021/09/10 00:08:20;;;;;;;6.5;5.4;;;;;;;17.32;80.58496;938.5553;;;;
2021/09/10 00:10:47;;;;;;;6.7;5.1;;;;;;;17.48;79.66504;938.5513;;;;
2021/09/10 00:13:13;;;;;;;5.3;4.8;;;;;;;17.47;79.89551;938.5627;;;;
2021/09/10 00:15:38;;;;;;;6.9;5.5;;;;;;;17.49;80.14063;938.5222;;;;
2021/09/10 00:18:03;;;;;;;6.3;5.1;;;;;;;17.39;80.66797;938.5041;;;;
2021/09/10 00:20:28;;;;;;;7.7;5.7;;;;;;;17.33;81.52734;938.5833;;;;
2021/09/10 00:22:53;;;;;;;8.3;5.9;;;;;;;17.24;82.12402;938.6136;;;;
2021/09/10 00:25:18;;;;;;;6.7;6;;;;;;;17.24;82.62207;938.5405;;;;
2021/09/10 00:27:43;;;;;;;6.2;5.5;;;;;;;17.32;84.05273;938.548;;;;
2021/09/10 00:30:08;;;;;;;7;6.1;;;;;;;17.21;85.27246;938.5751;;;;
2021/09/10 00:32:34;;;;;;;7.2;5.9;;;;;;;17.3;85.33789;938.5732;;;;
2021/09/10 00:34:59;;;;;;;7.1;5.7;;;;;;;17.14;86.08301;938.5834;;;;
2021/09/10 00:37:24;;;;;;;7.6;5.8;;;;;;;16.87;88.38184;938.4835;;;;
2021/09/10 00:39:49;;;;;;;8.8;5.8;;;;;;;16.8;89.45605;938.5011;;;;
2021/09/10 00:42:15;;;;;;;8.1;5.4;;;;;;;16.8;89.27051;938.473;;;;
2021/09/10 00:44:40;;;;;;;6.6;5.2;;;;;;;16.86;88.98047;938.4289;;;;
2021/09/10 00:47:05;;;;;;;10.6;8.1;;;;;;;16.84;89.37012;938.3995;;;;
2021/09/10 00:49:30;;;;;;;10;7.1;;;;;;;16.88;89.76172;938.4222;;;;
2021/09/10 00:51:57;;;;;;;7.5;6;;;;;;;16.8;90.3125;938.4037;;;;
2021/09/10 00:54:20;;;;;;;11.6;10;;;;;;;16.55;91.82324;938.3929;;;;
2021/09/10 00:56:45;;;;;;;10.9;9.2;;;;;;;16.43;92.81738;938.3832;;;;
2021/09/10 00:59:10;;;;;;;8.8;7.4;;;;;;;16.32;93.69531;938.4269;;;;
2021/09/10 01:01:35;;;;;;;7.7;6.5;;;;;;;16.41;93.20703;938.4008;;;;
2021/09/10 01:04:01;;;;;;;11;9.9;;;;;;;16.26;94.27539;938.4766;;;;
2021/09/10 01:06:26;;;;;;;9.7;6.9;;;;;;;16.29;93.9209;938.4706;;;;
2021/09/10 01:10:02;;;;;;;8.9;6.1;;;;;;;16.35;93.49414;938.4932;;;;
2021/09/10 01:12:27;;;;;;;7.4;6.1;;;;;;;16.28;94.12891;938.4402;;;;
2021/09/10 01:14:52;;;;;;;8.5;6.4;;;;;;;16.31;94.18066;938.4689;;;;
2021/09/10 01:17:17;;;;;;;9.6;6.3;;;;;;;16.26;93.92676;938.4976;;;;
2021/09/10 01:19:42;;;;;;;7.4;5.9;;;;;;;16.3;93.85547;938.497;;;;
2021/09/10 01:22:08;;;;;;;6.6;5.6;;;;;;;16.36;93.77637;938.4771;;;;
2021/09/10 01:24:34;;;;;;;7.7;6;;;;;;;16.39;93.12207;938.5;;;;
2021/09/10 01:26:59;;;;;;;6.9;5.7;;;;;;;16.42;93.18555;938.4428;;;;
2021/09/10 01:29:27;;;;;;;6.8;5.5;;;;;;;16.41;92.33887;938.4338;;;;
2021/09/10 01:31:53;;;;;;;9;6.7;;;;;;;16.51;92.08008;938.5004;;;;
2021/09/10 01:34:19;;;;;;;7.6;5.8;;;;;;;16.53;92.41016;938.4936;;;;
2021/09/10 01:36:43;;;;;;;8;6.3;;;;;;;16.69;91.87695;938.5413;;;;
2021/09/10 01:39:09;;;;;;;7.1;5.4;;;;;;;16.62;92.05859;938.512;;;;
2021/09/10 01:41:34;;;;;;;6.5;5.6;;;;;;;16.75;91.57617;938.4713;;;;
2021/09/10 01:44:00;;;;;;;6.7;5.2;;;;;;;16.86;91.07715;938.457;;;;
2021/09/10 01:46:25;;;;;;;7.3;5.4;;;;;;;16.89;90.83008;938.5161;;;;
2021/09/10 01:48:52;;;;;;;6.3;5;;;;;;;16.91;90.60156;938.4925;;;;
2021/09/10 01:51:17;;;;;;;6.3;5.3;;;;;;;16.95;90.25195;938.5128;;;;
2021/09/10 01:53:42;;;;;;;5.9;4.9;;;;;;;16.95;90.00879;938.4517;;;;
2021/09/10 01:56:07;;;;;;;6.7;5.3;;;;;;;16.98;89.52734;938.4408;;;;
2021/09/10 01:58:33;;;;;;;6;5.2;;;;;;;17.02;89.73145;938.4252;;;;
2021/09/10 02:00:59;;;;;;;5.4;4.8;;;;;;;16.96;89.9502;938.4266;;;;
2021/09/10 02:03:24;;;;;;;7.3;4.8;;;;;;;16.82;90.53809;938.4117;;;;
2021/09/10 02:05:49;;;;;;;7.6;5.4;;;;;;;16.81;90.59277;938.3722;;;;
2021/09/10 02:08:15;;;;;;;5.8;4.9;;;;;;;16.82;90.79297;938.3917;;;;
2021/09/10 02:10:40;;;;;;;5.8;4.7;;;;;;;16.82;90.30469;938.3778;;;;
2021/09/10 02:13:05;;;;;;;11.8;7;;;;;;;16.73;90.33301;938.3508;;;;
2021/09/10 02:15:31;;;;;;;6.5;5;;;;;;;16.59;91.45117;938.3441;;;;
2021/09/10 02:17:56;;;;;;;6.6;5.1;;;;;;;16.55;91.28125;938.2578;;;;
2021/09/10 02:20:21;;;;;;;6.5;5.2;;;;;;;16.54;91.19824;938.2869;;;;
2021/09/10 02:22:47;;;;;;;5.8;4.7;;;;;;;16.56;91.03809;938.2505;;;;
2021/09/10 02:25:12;;;;;;;7;5.1;;;;;;;16.67;90.61133;938.2424;;;;
2021/09/10 02:27:37;;;;;;;7.9;5.9;;;;;;;16.79;90.19531;938.313;;;;
2021/09/10 02:30:03;;;;;;;6.4;5.4;;;;;;;16.83;90.56348;938.3705;;;;
2021/09/10 02:32:29;;;;;;;5.7;5.1;;;;;;;16.87;90.57129;938.4175;;;;
2021/09/10 02:34:54;;;;;;;5.7;5;;;;;;;16.88;90.58301;938.3772;;;;
2021/09/10 02:37:20;;;;;;;7;5.5;;;;;;;16.87;90.54785;938.3967;;;;
2021/09/10 02:39:46;;;;;;;6.3;5.4;;;;;;;16.79;89.49805;938.4055;;;;
2021/09/10 02:42:12;;;;;;;6.3;5.4;;;;;;;16.78;89.12793;938.3911;;;;
2021/09/10 02:44:37;;;;;;;6.9;5.4;;;;;;;16.76;90.11816;938.332;;;;
2021/09/10 02:47:03;;;;;;;6.1;5.4;;;;;;;16.76;89.94629;938.4203;;;;
2021/09/10 02:49:28;;;;;;;7.3;5.9;;;;;;;16.77;89.62402;938.3864;;;;
2021/09/10 02:51:55;;;;;;;10;5.5;;;;;;;16.78;89.34766;938.4474;;;;
2021/09/10 02:54:20;;;;;;;6.9;5.6;;;;;;;16.77;90.63184;938.4476;;;;
2021/09/10 02:56:45;;;;;;;6.5;5.1;;;;;;;16.73;90.50684;938.4136;;;;
2021/09/10 02:59:10;;;;;;;6.3;5;;;;;;;16.68;90.58789;938.4224;;;;
2021/09/10 03:01:36;;;;;;;6.8;5.4;;;;;;;16.58;89.9209;938.4005;;;;
2021/09/10 03:04:01;;;;;;;5.6;4.9;;;;;;;16.51;90.61426;938.3806;;;;
2021/09/10 03:06:31;;;;;;;6.1;5.3;;;;;;;16.55;89.91504;938.4299;;;;
2021/09/10 03:08:56;;;;;;;5.8;5.2;;;;;;;16.57;90.42676;938.3791;;;;
2021/09/10 03:11:30;;;;;;;6.8;5.7;;;;;;;16.51;91.06348;938.3766;;;;
2021/09/10 03:13:46;;;;;;;6.8;5.5;;;;;;;16.39;91.54883;938.3986;;;;
2021/09/10 03:16:12;;;;;;;6.7;5.4;;;;;;;16.31;91.64551;938.2784;;;;
2021/09/10 03:18:37;;;;;;;7;5.1;;;;;;;16.38;91.23242;938.2831;;;;
2021/09/10 03:21:02;;;;;;;6.4;5.1;;;;;;;16.41;91.13574;938.3214;;;;
2021/09/10 03:23:27;;;;;;;7.4;5.4;;;;;;;16.47;91.04297;938.3811;;;;
2021/09/10 03:25:52;;;;;;;5.6;5;;;;;;;16.44;91.24512;938.3542;;;;
2021/09/10 03:28:18;;;;;;;6.4;4.9;;;;;;;16.44;91.73145;938.3164;;;;
2021/09/10 03:30:43;;;;;;;6.6;5.3;;;;;;;16.4;91.68945;938.3077;;;;
2021/09/10 03:33:08;;;;;;;7;5.8;;;;;;;16.4;91.45801;938.3166;;;;
2021/09/10 03:35:34;;;;;;;7.3;5.2;;;;;;;16.36;91.0918;938.3259;;;;
2021/09/10 03:37:59;;;;;;;6.2;5.4;;;;;;;16.46;90.49707;938.3611;;;;
2021/09/10 03:40:24;;;;;;;5.8;5.2;;;;;;;16.36;90.86035;938.3364;;;;
2021/09/10 03:42:49;;;;;;;5.5;4.9;;;;;;;16.28;91.31738;938.3317;;;;
2021/09/10 03:45:14;;;;;;;6.5;5.3;;;;;;;16.25;91.47168;938.2446;;;;
2021/09/10 03:47:39;;;;;;;6.1;5.3;;;;;;;16.13;92.21094;938.2827;;;;
2021/09/10 03:50:04;;;;;;;6.7;5.4;;;;;;;16.05;92.22852;938.258;;;;
2021/09/10 03:52:30;;;;;;;6.6;5.7;;;;;;;16.08;92.65039;938.2472;;;;
2021/09/10 03:54:55;;;;;;;6.5;5.5;;;;;;;16.09;92.33984;938.2511;;;;
2021/09/10 03:57:20;;;;;;;6.3;5.4;;;;;;;16.08;92.52539;938.2639;;;;
2021/09/10 03:59:46;;;;;;;7.3;5.7;;;;;;;16.05;92.69141;938.233;;;;
2021/09/10 04:02:31;;;;;;;7;5.5;;;;;;;16.04;92.68945;938.2676;;;;
2021/09/10 04:04:56;;;;;;;6.5;5.3;;;;;;;16.07;92.54395;938.2144;;;;
2021/09/10 04:07:22;;;;;;;6.5;5.8;;;;;;;16.01;92.80859;938.287;;;;
2021/09/10 04:09:47;;;;;;;6.1;5.4;;;;;;;15.95;93.16699;938.2838;;;;
2021/09/10 04:12:12;;;;;;;6.4;5.6;;;;;;;15.9;93.04004;938.2939;;;;
2021/09/10 04:14:37;;;;;;;6.8;5.5;;;;;;;15.85;93.51563;938.3217;;;;
2021/09/10 04:17:02;;;;;;;7.1;6;;;;;;;15.9;92.83203;938.3076;;;;
2021/09/10 04:19:27;;;;;;;6;5.4;;;;;;;15.94;92.28613;938.3094;;;;
2021/09/10 04:21:52;;;;;;;7.2;5.9;;;;;;;15.96;91.91113;938.2256;;;;
2021/09/10 04:24:18;;;;;;;6.7;5.8;;;;;;;16.07;91.79297;938.1726;;;;
2021/09/10 04:26:42;;;;;;;8.3;5.9;;;;;;;15.98;92.3291;938.2272;;;;
2021/09/10 04:29:08;;;;;;;7.2;5.6;;;;;;;15.99;92.51563;938.2559;;;;
2021/09/10 04:31:32;;;;;;;6.3;5.7;;;;;;;16.01;92.43848;938.25;;;;
2021/09/10 04:33:58;;;;;;;6.9;5.8;;;;;;;15.95;92.55469;938.238;;;;
2021/09/10 04:36:23;;;;;;;8.7;5.8;;;;;;;15.85;92.86816;938.3008;;;;
2021/09/10 04:38:48;;;;;;;7.9;6.1;;;;;;;15.89;92.69141;938.2932;;;;
2021/09/10 04:41:13;;;;;;;7.2;5.6;;;;;;;15.89;92.92285;938.1984;;;;
2021/09/10 04:43:38;;;;;;;7.6;5.6;;;;;;;15.89;92.5625;938.2708;;;;
2021/09/10 04:46:03;;;;;;;8.3;5.7;;;;;;;15.85;93.04199;938.2992;;;;
2021/09/10 04:48:29;;;;;;;7.4;5.8;;;;;;;15.82;93.05957;938.3156;;;;
2021/09/10 04:50:54;;;;;;;7.1;6;;;;;;;15.94;92.63379;938.3046;;;;
2021/09/10 04:53:19;;;;;;;5.9;5.2;;;;;;;15.85;93.12109;938.3097;;;;
2021/09/10 04:55:44;;;;;;;7.8;5.5;;;;;;;15.78;93.52344;938.2611;;;;
2021/09/10 04:58:09;;;;;;;8.8;6;;;;;;;15.88;93.39453;938.2869;;;;
2021/09/10 05:00:35;;;;;;;9.4;5.7;;;;;;;15.94;93.15137;938.2863;;;;
2021/09/10 05:03:00;;;;;;;6.1;5.4;;;;;;;16;92.56543;938.2742;;;;
2021/09/10 05:05:25;;;;;;;7.1;5.7;;;;;;;16.04;92.22461;938.2918;;;;
2021/09/10 05:07:50;;;;;;;9.4;5.9;;;;;;;16.08;92.15332;938.2584;;;;
2021/09/10 05:10:15;;;;;;;6.1;5.4;;;;;;;16.09;91.61328;938.2847;;;;
2021/09/10 05:12:40;;;;;;;8.1;5.7;;;;;;;16.07;91.43652;938.2802;;;;
2021/09/10 05:15:06;;;;;;;7;5.4;;;;;;;16.01;91.92969;938.2517;;;;
2021/09/10 05:17:30;;;;;;;5.8;5;;;;;;;16;91.97656;938.2903;;;;
2021/09/10 05:19:57;;;;;;;7.9;5.8;;;;;;;15.99;92.51563;938.2647;;;;
2021/09/10 05:22:21;;;;;;;9.6;5.8;;;;;;;16.08;92.65234;938.2679;;;;
2021/09/10 05:24:46;;;;;;;53;42.1;;;;;;;16.07;92.31348;938.2891;;;;
2021/09/10 05:27:11;;;;;;;12.2;10.3;;;;;;;16;92.34375;938.2977;;;;
2021/09/10 05:29:36;;;;;;;8.2;6.9;;;;;;;16.13;92.21289;938.3052;;;;
2021/09/10 05:32:01;;;;;;;7.4;5.9;;;;;;;16.2;91.26367;938.3132;;;;
2021/09/10 05:34:27;;;;;;;14.4;6.7;;;;;;;16.31;90.99902;938.329;;;;
2021/09/10 05:36:53;;;;;;;10.1;6.4;;;;;;;16.09;91.6709;938.3939;;;;
2021/09/10 05:39:19;;;;;;;9.9;5.9;;;;;;;16.27;91.83398;938.3666;;;;
2021/09/10 05:41:44;;;;;;;8.6;6.3;;;;;;;16.43;91.66211;938.339;;;;
2021/09/10 05:44:10;;;;;;;8.7;5.7;;;;;;;16.48;90.61621;938.3384;;;;
2021/09/10 05:46:35;;;;;;;7.3;5.5;;;;;;;16.63;90.73926;938.3697;;;;
2021/09/10 05:49:02;;;;;;;6.6;5.3;;;;;;;16.9;89.53418;938.3478;;;;
2021/09/10 05:51:26;;;;;;;7.1;5.8;;;;;;;17.05;88.39453;938.3613;;;;
2021/09/10 05:53:52;;;;;;;7.2;5.3;;;;;;;17.23;86.91016;938.3619;;;;
2021/09/10 05:56:16;;;;;;;7;5;;;;;;;17.55;85.03711;938.4132;;;;
2021/09/10 05:58:41;;;;;;;5.9;4.4;;;;;;;17.58;77.65039;938.3443;;;;
2021/09/10 06:01:06;;;;;;;6.5;4.7;;;;;;;18.48;75.86816;938.403;;;;
2021/09/10 06:03:32;;;;;;;6;4;;;;;;;19.73;70.18262;938.3998;;;;
2021/09/10 06:05:57;;;;;;;5.6;4;;;;;;;21.05;64.2998;938.3789;;;;
2021/09/10 06:08:22;;;;;;;5.9;4.3;;;;;;;20.17;65.85352;938.278;;;;
2021/09/10 06:10:47;;;;;;;6;4.6;;;;;;;21.41;61.50781;938.3105;;;;
2021/09/10 06:13:12;;;;;;;5.7;4.4;;;;;;;22.17;59.19922;938.2944;;;;
2021/09/10 06:15:37;;;;;;;7.1;3.9;;;;;;;23.71;54.37988;938.2888;;;;
2021/09/10 06:18:03;;;;;;;4.1;3.7;;;;;;;24.67;52.8584;938.2498;;;;
2021/09/10 06:20:28;;;;;;;5.5;3.9;;;;;;;25.12;50.49121;938.2659;;;;
2021/09/10 06:22:54;;;;;;;6.3;3.4;;;;;;;25.08;49.17773;938.351;;;;
2021/09/10 06:25:19;;;;;;;5;3.8;;;;;;;24.41;50.43555;938.3669;;;;
2021/09/10 06:27:45;;;;;;;4.5;3.8;;;;;;;24.83;49.52734;938.3456;;;;
2021/09/10 06:30:10;;;;;;;5.5;4.3;;;;;;;24.94;48.97363;938.3754;;;;
2021/09/10 06:32:35;;;;;;;4;3.7;;;;;;;23.87;51.49121;938.2745;;;;
2021/09/10 06:35:01;;;;;;;6.3;4.3;;;;;;;24.67;49.81641;938.315;;;;
2021/09/10 06:37:26;;;;;;;4.7;4;;;;;;;24.84;49.49219;938.3314;;;;
2021/09/10 06:39:51;;;;;;;5.4;4;;;;;;;26.31;46.75488;938.3378;;;;
2021/09/10 06:42:16;;;;;;;5;3.9;;;;;;;26.55;45.12305;938.3652;;;;
2021/09/10 06:44:42;;;;;;;5.3;3.9;;;;;;;25.11;49.91113;938.3391;;;;
2021/09/10 06:47:08;;;;;;;5;3.8;;;;;;;24.1;52.83691;938.3332;;;;
2021/09/10 06:49:33;;;;;;;4;3.5;;;;;;;24.64;51.44043;938.2698;;;;
2021/09/10 06:51:58;;;;;;;5.8;3.7;;;;;;;23.36;55.79395;938.2827;;;;
2021/09/10 06:54:23;;;;;;;4.7;4;;;;;;;23.6;54.74316;938.2416;;;;
2021/09/10 06:56:48;;;;;;;4.9;4.3;;;;;;;23;55.46875;938.2919;;;;
2021/09/10 06:59:17;;;;;;;6.2;4.4;;;;;;;22.75;58.23047;938.2913;;;;
2021/09/10 07:01:39;;;;;;;5.2;4;;;;;;;22.8;57.6748;938.291;;;;
2021/09/10 07:04:04;;;;;;;5.7;4.2;;;;;;;22.75;58.21875;938.2938;;;;
2021/09/10 07:06:37;;;;;;;5.7;4.1;;;;;;;22.39;59.7334;938.26;;;;
2021/09/10 07:08:54;;;;;;;4.6;4.2;;;;;;;22.23;61.12891;938.188;;;;
2021/09/10 07:11:19;;;;;;;4.5;4;;;;;;;22.08;62.53809;938.2605;;;;
2021/09/10 07:13:44;;;;;;;4.9;4;;;;;;;22.22;61.02246;938.2003;;;;
2021/09/10 07:16:09;;;;;;;8.2;4.2;;;;;;;23.32;58.27051;938.2198;;;;
2021/09/10 07:18:34;;;;;;;5.5;4;;;;;;;24.22;54.93555;938.1677;;;;
2021/09/10 07:21:02;;;;;;;4.1;3.7;;;;;;;22.71;58.04883;938.2385;;;;
2021/09/10 07:23:25;;;;;;;4.1;3.7;;;;;;;23.29;58.73633;938.2389;;;;
2021/09/10 07:25:51;;;;;;;5.1;3.7;;;;;;;23.22;57.97559;938.2651;;;;
2021/09/10 07:28:16;;;;;;;5.5;3.7;;;;;;;23.76;58.77441;938.2455;;;;
2021/09/10 07:30:42;;;;;;;7.7;4.3;;;;;;;24.12;55.59473;938.2754;;;;
2021/09/10 07:33:07;;;;;;;6.8;3.8;;;;;;;24.54;53.77344;938.2138;;;;
2021/09/10 07:35:33;;;;;;;4.2;3.8;;;;;;;24.72;52.41602;938.2241;;;;
2021/09/10 07:37:58;;;;;;;4.3;3.7;;;;;;;23.67;56.72852;938.2181;;;;
2021/09/10 07:40:24;;;;;;;5.5;3.6;;;;;;;25.39;52.6709;938.2232;;;;
2021/09/10 07:42:49;;;;;;;4.9;4.2;;;;;;;25;51.0918;938.2085;;;;
2021/09/10 07:45:14;;;;;;;4.9;3.9;;;;;;;26.12;49.45703;938.2048;;;;
2021/09/10 07:47:40;;;;;;;4.8;4.1;;;;;;;27.11;48.32227;938.2296;;;;
2021/09/10 07:50:05;;;;;;;4.2;3.7;;;;;;;26.94;46.47852;938.2155;;;;
2021/09/10 07:52:30;;;;;;;5.1;3.5;;;;;;;27.55;46.29297;938.2736;;;;
2021/09/10 07:54:55;;;;;;;5.5;3.8;;;;;;;28.31;43.625;938.17;;;;
2021/09/10 07:57:20;;;;;;;4.9;3.8;;;;;;;28.51;43.72754;938.2083;;;;
2021/09/10 07:59:45;;;;;;;5.1;3.8;;;;;;;27.98;42.85645;938.1552;;;;
2021/09/10 08:02:10;;;;;;;4.2;3.8;;;;;;;27.98;44.22266;938.1451;;;;
2021/09/10 08:04:35;;;;;;;4.1;3.7;;;;;;;28.75;41.91797;938.1917;;;;
2021/09/10 08:07:01;;;;;;;4.6;3.7;;;;;;;30.05;39.19922;938.1678;;;;
2021/09/10 08:09:27;;;;;;;4.6;3.6;;;;;;;30.78;37.80469;938.2109;;;;
2021/09/10 08:11:52;;;;;;;4.1;3.7;;;;;;;31.97;36.05859;938.2502;;;;
2021/09/10 08:14:17;;;;;;;4.5;3.2;;;;;;;31.62;36.2334;938.2346;;;;
2021/09/10 08:16:42;;;;;;;3.9;3.5;;;;;;;31.38;34.70703;938.2834;;;;
2021/09/10 08:19:07;;;;;;;4.1;3.7;;;;;;;32.11;35.80566;938.3454;;;;
2021/09/10 08:21:32;;;;;;;5.5;3.7;;;;;;;31.43;35.34375;938.3849;;;;
2021/09/10 08:23:57;;;;;;;5.5;3.9;;;;;;;30.56;37.98828;938.3881;;;;
2021/09/10 08:26:22;;;;;;;4;3.6;;;;;;;31.07;34.87402;938.4133;;;;
2021/09/10 08:28:48;;;;;;;5;3.4;;;;;;;30.6;36.14063;938.3942;;;;
2021/09/10 08:31:12;;;;;;;5.8;3.6;;;;;;;33.25;32.6748;938.3393;;;;
2021/09/10 08:33:38;;;;;;;3.8;3.4;;;;;;;33.25;32.43457;938.337;;;;
2021/09/10 08:36:03;;;;;;;4;3.6;;;;;;;31.42;35.83496;938.3596;;;;
2021/09/10 08:38:29;;;;;;;4.1;3.4;;;;;;;33.22;32.55273;938.3008;;;;
2021/09/10 08:40:54;;;;;;;3.9;3.5;;;;;;;34.2;31.40625;938.3155;;;;
2021/09/10 08:43:19;;;;;;;4.2;3.4;;;;;;;35.1;29.36816;938.308;;;;
2021/09/10 08:45:44;;;;;;;4.6;3.4;;;;;;;36.25;28.54785;938.2991;;;;
2021/09/10 08:48:09;;;;;;;3.5;3.1;;;;;;;36.7;26.67383;938.274;;;;
2021/09/10 08:50:34;;;;;;;3.9;3.3;;;;;;;36.46;26.7334;938.2721;;;;
2021/09/10 08:52:59;;;;;;;3.9;3.5;;;;;;;35.12;28.83887;938.2813;;;;
2021/09/10 08:55:25;;;;;;;3.6;3.3;;;;;;;35.41;29.71484;938.2578;;;;
2021/09/10 08:57:51;;;;;;;5.4;3.9;;;;;;;35.08;28.24609;938.2728;;;;
2021/09/10 09:00:18;;;;;;;3.7;3.4;;;;;;;32.49;32.80078;938.1829;;;;
2021/09/10 09:02:43;;;;;;;3.6;3.3;;;;;;;34.24;30.1084;938.1705;;;;
2021/09/10 09:05:08;;;;;;;3.4;3.1;;;;;;;33.67;30.58887;938.0906;;;;
2021/09/10 09:07:33;;;;;;;4.4;3.5;;;;;;;34.08;31.86719;938.1824;;;;
2021/09/10 09:09:59;;;;;;;4.7;3.3;;;;;;;33.79;31.29395;938.1393;;;;
2021/09/10 09:12:24;;;;;;;3.7;3.3;;;;;;;34.47;30.38867;938.0641;;;;
2021/09/10 09:14:49;;;;;;;3.7;3.3;;;;;;;34.23;30.74609;938.0899;;;;
2021/09/10 09:17:14;;;;;;;3.4;3.1;;;;;;;34.38;29.21387;938.0444;;;;
2021/09/10 09:19:39;;;;;;;4.8;3.2;;;;;;;35.16;29.72266;938.0505;;;;
2021/09/10 09:22:09;;;;;;;3.9;3.5;;;;;;;34.39;29.45605;937.9973;;;;
2021/09/10 09:24:34;;;;;;;3.5;3.2;;;;;;;33.69;31.69629;937.9914;;;;
2021/09/10 09:26:59;;;;;;;3.7;3.4;;;;;;;33.06;32.86523;937.9864;;;;
2021/09/10 09:29:24;;;;;;;4.8;3.7;;;;;;;32.41;33.1416;938.0286;;;;
2021/09/10 09:31:49;;;;;;;4.2;3.6;;;;;;;30.59;35.69727;938.0359;;;;
2021/09/10 09:34:14;;;;;;;4.9;4.1;;;;;;;30.1;37.24609;937.9213;;;;
2021/09/10 09:36:40;;;;;;;4.8;4.3;;;;;;;29.12;39.41699;938.0062;;;;
2021/09/10 09:39:05;;;;;;;4.8;3.8;;;;;;;28.8;40.37598;937.9883;;;;
2021/09/10 09:41:30;;;;;;;4.4;3.6;;;;;;;28.41;41.44727;938.0519;;;;
2021/09/10 09:43:55;;;;;;;4.2;3.8;;;;;;;27.43;43.70508;938.0112;;;;
2021/09/10 09:46:20;;;;;;;4.9;4;;;;;;;26.69;45.63477;938.0056;;;;
2021/09/10 09:48:45;;;;;;;5.1;3.7;;;;;;;26.75;46.09277;937.99;;;;
2021/09/10 09:51:10;;;;;;;4.2;3.8;;;;;;;26.26;45.82715;938.0595;;;;
2021/09/10 09:53:37;;;;;;;5.6;4;;;;;;;26.5;46.05469;937.9883;;;;
2021/09/10 09:56:02;;;;;;;4.7;4;;;;;;;25.81;48.98535;937.9158;;;;
2021/09/10 09:58:27;;;;;;;4.6;4;;;;;;;25.89;48.48633;937.938;;;;
2021/09/10 10:00:52;;;;;;;4.4;3.9;;;;;;;25.51;50.46387;937.8845;;;;
2021/09/10 10:03:19;;;;;;;5.3;4.1;;;;;;;25.38;52.84863;937.8722;;;;
2021/09/10 10:06:02;;;;;;;4.1;3.7;;;;;;;25.36;50.79004;937.9253;;;;
2021/09/10 10:08:29;;;;;;;4.5;3.8;;;;;;;26.3;49.12207;937.9405;;;;
2021/09/10 10:10:52;;;;;;;4.2;3.8;;;;;;;26.01;48.38086;937.9598;;;;
2021/09/10 10:13:17;;;;;;;4.6;4.1;;;;;;;25.75;50.51563;937.9246;;;;
2021/09/10 10:15:43;;;;;;;3.9;3.4;;;;;;;26.11;49.96484;937.9261;;;;
2021/09/10 10:18:08;;;;;;;4.4;4;;;;;;;26.13;49.39941;937.9326;;;;
2021/09/10 10:20:34;;;;;;;4;3.6;;;;;;;26.27;47.91211;937.9533;;;;
2021/09/10 10:23:00;;;;;;;5;4.4;;;;;;;27.02;48.45313;937.9239;;;;
2021/09/10 10:25:55;;;;;;;4.2;3.8;;;;;;;28.2;46.09766;937.8993;;;;
2021/09/10 10:28:20;;;;;;;4.6;3.8;;;;;;;29.43;42.24414;937.7816;;;;
2021/09/10 10:30:46;;;;;;;4.5;4.1;;;;;;;29.67;42.68359;937.8122;;;;
2021/09/10 10:33:11;;;;;;;4.8;4.2;;;;;;;28.23;46.37402;937.8123;;;;
2021/09/10 10:35:36;;;;;;;4.6;4;;;;;;;28.36;46.07813;937.8003;;;;
2021/09/10 10:38:01;;;;;;;4.9;4.1;;;;;;;29.13;42.67969;937.6981;;;;
2021/09/10 10:40:26;;;;;;;5.1;4;;;;;;;29.4;42.83691;937.6965;;;;
2021/09/10 10:42:51;;;;;;;5;4;;;;;;;29.2;42.77051;937.6155;;;;
2021/09/10 10:45:16;;;;;;;5.9;3.8;;;;;;;29.98;42.08008;937.6111;;;;
2021/09/10 10:47:42;;;;;;;5.3;3.9;;;;;;;31.02;39.42676;937.6163;;;;
2021/09/10 10:50:08;;;;;;;4.8;3.6;;;;;;;30.96;39.39746;937.5344;;;;
2021/09/10 10:52:33;;;;;;;5.3;4.1;;;;;;;31.97;37.7002;937.4698;;;;
2021/09/10 10:54:58;;;;;;;5.4;4.3;;;;;;;30.94;39.27637;937.4691;;;;
2021/09/10 10:57:23;;;;;;;3.9;3.5;;;;;;;30.22;42.40137;937.5108;;;;
2021/09/10 10:59:48;;;;;;;5.7;3.7;;;;;;;30.25;42.41602;937.4341;;;;
2021/09/10 11:02:14;;;;;;;4;3.6;;;;;;;30.36;41.16016;937.5187;;;;
2021/09/10 11:04:39;;;;;;;3.9;3.5;;;;;;;31.1;38.71582;937.5726;;;;
2021/09/10 11:07:04;;;;;;;4.2;3.8;;;;;;;31.74;37.35742;937.462;;;;
2021/09/10 11:09:29;;;;;;;5.6;3.9;;;;;;;29.35;43.02246;937.3887;;;;
2021/09/10 11:11:54;;;;;;;4.6;4.1;;;;;;;29.67;42.49316;937.4414;;;;
2021/09/10 11:14:19;;;;;;;6.4;3.7;;;;;;;29.96;41.32617;937.4063;;;;
2021/09/10 11:16:45;;;;;;;6.2;4.2;;;;;;;30.27;41.62988;937.4244;;;;
2021/09/10 11:19:10;;;;;;;5.1;3.8;;;;;;;29.41;44.51758;937.3315;;;;
2021/09/10 11:21:35;;;;;;;4.8;3.7;;;;;;;29.34;42.71191;937.3089;;;;
2021/09/10 11:24:00;;;;;;;4.8;4.2;;;;;;;29.39;43.14648;937.3014;;;;
2021/09/10 11:26:25;;;;;;;4.4;4;;;;;;;29.32;44.11621;937.3109;;;;
2021/09/10 11:28:50;;;;;;;4.3;3.9;;;;;;;29.08;43.27051;937.249;;;;
2021/09/10 11:31:16;;;;;;;4;3.6;;;;;;;27.99;46.78906;937.2498;;;;
2021/09/10 11:33:41;;;;;;;4.2;3.8;;;;;;;28.11;46.15918;937.2481;;;;
2021/09/10 11:36:06;;;;;;;4.9;4.1;;;;;;;27.72;48.50684;937.1998;;;;
2021/09/10 11:38:31;;;;;;;4.4;4;;;;;;;27.67;49.6875;937.2414;;;;
2021/09/10 11:40:56;;;;;;;4.7;4.2;;;;;;;26.19;53.77148;937.2453;;;;
2021/09/10 11:43:21;;;;;;;4.9;4.4;;;;;;;26.96;50.83008;937.2516;;;;
2021/09/10 11:45:46;;;;;;;4.3;3.8;;;;;;;27.11;49.25879;937.193;;;;
2021/09/10 11:48:11;;;;;;;4.8;4.3;;;;;;;26.23;54.04785;937.2075;;;;
2021/09/10 11:50:36;;;;;;;4.8;4;;;;;;;26.57;51.93457;937.0902;;;;
2021/09/10 11:53:01;;;;;;;4.7;4.2;;;;;;;26.72;52.91211;937.0945;;;;
2021/09/10 11:55:26;;;;;;;5.9;4.3;;;;;;;26.53;53.21973;937.1833;;;;
2021/09/10 11:57:51;;;;;;;4.5;4.1;;;;;;;26.96;51.12598;937.1624;;;;
2021/09/10 12:00:17;;;;;;;5.5;4.4;;;;;;;26.78;51.66211;937.1749;;;;
2021/09/10 12:02:42;;;;;;;4.5;4.1;;;;;;;26.86;50.56934;937.1625;;;;
2021/09/10 12:05:07;;;;;;;4.4;3.9;;;;;;;27.18;48.8623;937.1395;;;;
2021/09/10 12:07:32;;;;;;;5.3;4.2;;;;;;;27.59;47.99414;937.0941;;;;
2021/09/10 12:09:57;;;;;;;5.8;4.4;;;;;;;27.06;50.84082;937.1431;;;;
2021/09/10 12:12:23;;;;;;;6;4.7;;;;;;;26.79;50.52637;937.1252;;;;
2021/09/10 12:14:47;;;;;;;5.3;4.2;;;;;;;26.29;53.48828;937.0753;;;;
2021/09/10 12:17:12;;;;;;;9.3;4.7;;;;;;;26.3;53.97363;937.1052;;;;
2021/09/10 12:19:37;;;;;;;6.4;4.6;;;;;;;26.6;51.37012;936.9964;;;;
2021/09/10 12:22:02;;;;;;;6.9;4.4;;;;;;;26.01;54.25879;936.9836;;;;
2021/09/10 12:24:28;;;;;;;6.4;4.2;;;;;;;25.55;54.80664;937.0853;;;;
2021/09/10 12:26:53;;;;;;;7.6;5.3;;;;;;;25.51;56.08887;936.9702;;;;
2021/09/10 12:29:18;;;;;;;5.3;4.5;;;;;;;25.83;54.59277;936.9447;;;;
2021/09/10 12:31:43;;;;;;;6.1;4.8;;;;;;;25.93;55.87012;937.0178;;;;
2021/09/10 12:34:08;;;;;;;5;4.5;;;;;;;25.87;55.28125;936.9788;;;;
2021/09/10 12:36:33;;;;;;;5.4;4.8;;;;;;;25.84;54.72266;936.9934;;;;
2021/09/10 12:38:58;;;;;;;5.7;4.6;;;;;;;25.89;56.53809;937.0195;;;;
2021/09/10 12:41:23;;;;;;;5.1;4.5;;;;;;;26.32;53.27832;936.9883;;;;
2021/09/10 12:43:50;;;;;;;5.8;4.6;;;;;;;25.76;55.01953;936.8961;;;;
2021/09/10 12:46:15;;;;;;;7.3;4.7;;;;;;;25.57;57.13379;936.9796;;;;
2021/09/10 12:48:40;;;;;;;4.9;4.4;;;;;;;25.64;56.68359;936.9523;;;;
2021/09/10 12:51:05;;;;;;;5;4.1;;;;;;;25.91;53.46582;936.9391;;;;
2021/09/10 12:53:31;;;;;;;4.3;3.8;;;;;;;26.24;49.03223;936.9411;;;;
2021/09/10 12:55:55;;;;;;;4.4;3.9;;;;;;;26.77;48.88965;936.9891;;;;
2021/09/10 12:58:21;;;;;;;4.1;3.7;;;;;;;27.04;46.98633;937.0101;;;;
2021/09/10 13:00:46;;;;;;;4.5;3.9;;;;;;;27.45;46.54297;936.9852;;;;
2021/09/10 13:03:11;;;;;;;5.5;4.2;;;;;;;27.4;46.7627;936.9626;;;;
2021/09/10 13:05:36;;;;;;;4.8;3.9;;;;;;;27.36;46.90137;937.0173;;;;
2021/09/10 13:08:01;;;;;;;4;3.6;;;;;;;27.74;46.01465;937.0067;;;;
2021/09/10 13:10:26;;;;;;;4.6;3.9;;;;;;;27.48;46.14258;936.9478;;;;
2021/09/10 13:12:51;;;;;;;4.3;3.4;;;;;;;27.77;44.30859;936.9886;;;;
2021/09/10 13:15:17;;;;;;;4.2;3.8;;;;;;;27.8;44.2168;936.976;;;;
2021/09/10 13:17:42;;;;;;;4;3.2;;;;;;;28.07;44.14844;937.0003;;;;
2021/09/10 13:20:09;;;;;;;5.3;3.8;;;;;;;27.63;47.51172;936.9369;;;;
2021/09/10 13:22:34;;;;;;;5.4;3.7;;;;;;;27.37;47.31738;936.9949;;;;
2021/09/10 13:25:05;;;;;;;4.4;3.9;;;;;;;27.63;45.24512;936.9467;;;;
2021/09/10 13:27:30;;;;;;;4.7;3.8;;;;;;;27.49;43.88965;936.938;;;;
2021/09/10 13:29:56;;;;;;;3.9;3.5;;;;;;;27.48;43.80469;936.9422;;;;
2021/09/10 13:32:21;;;;;;;4.4;3.7;;;;;;;27.8;44.81055;936.9416;;;;
2021/09/10 13:34:46;;;;;;;4.3;3.7;;;;;;;27.82;44.69434;936.9044;;;;
2021/09/10 13:37:12;;;;;;;4.6;3.6;;;;;;;27.71;44.68262;936.8759;;;;
2021/09/10 13:39:36;;;;;;;4.4;3.8;;;;;;;27.2;45.72168;936.8881;;;;
2021/09/10 13:42:04;;;;;;;4.1;3.7;;;;;;;26.71;46.13477;936.9297;;;;
2021/09/10 13:44:29;;;;;;;5.2;4.2;;;;;;;26.56;45.92969;936.8719;;;;
2021/09/10 13:46:54;;;;;;;4.9;3.7;;;;;;;26.62;45.35547;936.8845;;;;
2021/09/10 13:49:19;;;;;;;4.8;3.7;;;;;;;26.85;43.88574;936.8655;;;;
2021/09/10 13:51:44;;;;;;;5.6;4.4;;;;;;;26.57;45.87207;936.9197;;;;
2021/09/10 13:54:26;;;;;;;4.6;4;;;;;;;26.7;45.16211;936.8763;;;;
2021/09/10 13:56:52;;;;;;;5.5;3.9;;;;;;;26.95;45.55566;936.9128;;;;
2021/09/10 14:00:32;;;;;;;4.4;3.7;;;;;;;27.25;43.52148;936.9355;;;;
2021/09/10 14:02:57;;;;;;;5.6;4;;;;;;;26.37;45.46094;936.8569;;;;
2021/09/10 14:05:22;;;;;;;4;3.6;;;;;;;26.38;46.38477;936.8783;;;;
2021/09/10 14:07:47;;;;;;;3.8;3.5;;;;;;;26.21;46.89941;936.8834;;;;
2021/09/10 14:10:12;;;;;;;4.9;4.1;;;;;;;25.96;47.5127;936.916;;;;
2021/09/10 14:12:37;;;;;;;5.5;4.3;;;;;;;25.51;50.16992;936.8414;;;;
2021/09/10 14:15:04;;;;;;;5.9;4.4;;;;;;;25.41;51.3623;936.8884;;;;
2021/09/10 14:17:31;;;;;;;5;4.4;;;;;;;24.98;54.09863;936.9405;;;;